createdAt,value
2022-08-23T00:01:31.130Z,24.51
2022-08-23T00:04:06.865Z,24.43
2022-08-23T00:06:34.202Z,24.52
2022-08-23T00:09:02.706Z,24.49
2022-08-23T00:11:55.580Z,24.53
2022-08-23T00:14:27.775Z,24.47
2022-08-23T00:16:57.142Z,24.50
2022-08-23T00:19:25.758Z,24.48
2022-08-23T00:21:56.025Z,24.39
2022-08-23T00:24:25.092Z,24.36
2022-08-23T00:27:07.352Z,24.36
2022-08-23T00:29:40.341Z,24.32
2022-08-23T00:32:11.478Z,24.39
2022-08-23T00:34:40.211Z,24.29
2022-08-23T00:37:09.213Z,24.20
2022-08-23T00:39:37.257Z,24.25
2022-08-23T00:42:30.122Z,24.35
2022-08-23T00:45:19.103Z,24.51
2022-08-23T00:47:46.934Z,24.19
2022-08-23T00:50:26.083Z,24.12
2022-08-23T00:53:13.674Z,24.01
2022-08-23T00:55:44.395Z,24.15
2022-08-23T00:58:14.148Z,24.01
2022-08-23T01:00:41.628Z,24.02
2022-08-23T01:03:11.342Z,23.96
2022-08-23T01:05:52.651Z,23.75
2022-08-23T01:08:23.652Z,23.63
2022-08-23T01:10:57.674Z,23.45
2022-08-23T01:13:37.843Z,23.27
2022-08-23T01:16:13.378Z,23.30
2022-08-23T01:18:43.245Z,23.35
2022-08-23T01:21:18.379Z,23.41
2022-08-23T01:23:53.175Z,23.50
2022-08-23T01:26:23.573Z,23.48
2022-08-23T01:28:52.602Z,23.45
2022-08-23T01:31:23.082Z,23.53
2022-08-23T01:33:56.281Z,23.37
2022-08-23T01:36:24.406Z,23.35
2022-08-23T01:38:53.274Z,23.36
2022-08-23T01:41:20.650Z,23.37
2022-08-23T01:43:48.348Z,23.38
2022-08-23T01:46:21.969Z,23.27
2022-08-23T01:48:51.409Z,23.20
2022-08-23T01:51:20.835Z,23.28
2022-08-23T01:53:49.370Z,23.40
2022-08-23T01:56:27.542Z,23.36
2022-08-23T01:59:09.049Z,23.37
2022-08-23T02:01:41.473Z,23.40
2022-08-23T02:04:09.079Z,23.52
2022-08-23T02:06:36.450Z,23.32
2022-08-23T02:09:07.148Z,23.31
2022-08-23T02:11:46.804Z,23.27
2022-08-23T02:14:18.575Z,23.22
2022-08-23T02:16:59.999Z,23.15
2022-08-23T02:19:34.857Z,23.21
2022-08-23T02:22:04.877Z,23.29
2022-08-23T02:24:32.906Z,23.34
2022-08-23T02:27:05.060Z,23.18
2022-08-23T02:29:37.606Z,23.09
2022-08-23T02:32:09.676Z,23.21
2022-08-23T02:34:37.522Z,23.15
2022-08-23T02:37:07.693Z,23.12
2022-08-23T02:39:35.947Z,23.05
2022-08-23T02:42:07.635Z,23.18
2022-08-23T02:44:38.349Z,23.07
2022-08-23T02:47:08.849Z,23.13
2022-08-23T02:49:38.266Z,23.15
2022-08-23T02:52:06.654Z,23.17
2022-08-23T02:54:35.632Z,23.06
2022-08-23T02:57:03.443Z,23.24
2022-08-23T02:59:31.499Z,23.05
2022-08-23T03:01:59.568Z,23.08
2022-08-23T03:04:35.261Z,23.06
2022-08-23T03:07:02.909Z,23.08
2022-08-23T03:09:30.351Z,23.19
2022-08-23T03:11:57.980Z,23.13
2022-08-23T03:14:27.388Z,23.05
2022-08-23T03:16:56.087Z,23.11
2022-08-23T03:19:26.391Z,23.06
2022-08-23T03:21:53.728Z,23.09
2022-08-23T03:24:22.724Z,22.96
2022-08-23T03:26:50.087Z,22.98
2022-08-23T03:29:18.829Z,22.91
2022-08-23T03:32:07.510Z,22.92
2022-08-23T03:34:37.828Z,22.98
2022-08-23T03:37:07.439Z,23.07
2022-08-23T03:39:35.681Z,22.95
2022-08-23T03:42:03.497Z,22.99
2022-08-23T03:44:33.723Z,22.99
2022-08-23T03:47:01.450Z,23.09
2022-08-23T03:49:29.634Z,23.37
2022-08-23T03:51:58.436Z,23.15
2022-08-23T03:54:27.478Z,22.93
2022-08-23T03:57:13.659Z,22.93
2022-08-23T03:59:42.631Z,22.92
2022-08-23T04:02:12.158Z,22.95
2022-08-23T04:04:39.766Z,22.85
2022-08-23T04:07:42.411Z,22.90
2022-08-23T04:10:13.700Z,22.73
2022-08-23T04:12:59.785Z,22.59
2022-08-23T04:15:27.235Z,22.60
2022-08-23T04:17:54.634Z,22.38
2022-08-23T04:20:23.443Z,22.35
2022-08-23T04:22:55.730Z,22.37
2022-08-23T04:25:33.581Z,22.37
2022-08-23T04:28:03.794Z,22.46
2022-08-23T04:30:32.898Z,22.29
2022-08-23T04:33:01.743Z,22.41
2022-08-23T04:35:33.123Z,22.45
2022-08-23T04:38:01.021Z,22.44
2022-08-23T04:40:47.174Z,22.52
2022-08-23T04:43:17.031Z,22.38
2022-08-23T04:45:45.114Z,22.46
2022-08-23T04:48:23.559Z,22.44
2022-08-23T04:50:51.252Z,22.40
2022-08-23T04:53:20.824Z,22.43
2022-08-23T04:56:04.536Z,22.54
2022-08-23T04:58:33.738Z,22.43
2022-08-23T05:01:04.627Z,22.55
2022-08-23T05:03:32.126Z,22.49
2022-08-23T05:06:01.231Z,22.56
2022-08-23T05:08:35.967Z,22.60
2022-08-23T05:11:08.171Z,22.52
2022-08-23T05:13:38.568Z,22.59
2022-08-23T05:16:08.125Z,22.78
2022-08-23T05:18:40.970Z,22.85
2022-08-23T05:21:14.683Z,22.79
2022-08-23T05:23:42.434Z,22.95
2022-08-23T05:26:19.086Z,23.02
2022-08-23T05:28:49.062Z,23.10
2022-08-23T05:31:23.426Z,23.34
2022-08-23T05:33:53.799Z,23.48
2022-08-23T05:36:55.405Z,23.33
2022-08-23T05:39:36.080Z,23.34
2022-08-23T05:42:12.293Z,23.51
2022-08-23T05:44:39.913Z,23.66
2022-08-23T05:47:15.636Z,23.77
2022-08-23T05:50:06.565Z,23.78
2022-08-23T05:52:36.858Z,23.95
2022-08-23T05:55:06.543Z,24.07
2022-08-23T05:57:38.340Z,24.02
2022-08-23T06:00:11.041Z,24.31
2022-08-23T06:02:46.899Z,24.27
2022-08-23T06:05:15.657Z,24.41
2022-08-23T06:07:44.734Z,24.36
2022-08-23T06:10:15.864Z,24.44
2022-08-23T06:12:48.306Z,24.61
2022-08-23T06:15:15.818Z,24.89
2022-08-23T06:17:43.360Z,24.78
2022-08-23T06:20:11.122Z,24.88
2022-08-23T06:22:56.117Z,25.01
2022-08-23T06:25:23.430Z,25.03
2022-08-23T06:27:55.001Z,25.17
2022-08-23T06:30:24.034Z,25.31
2022-08-23T06:33:13.888Z,25.39
2022-08-23T06:35:48.326Z,25.42
2022-08-23T06:38:27.136Z,26.17
2022-08-23T06:41:12.100Z,27.45
2022-08-23T06:43:43.074Z,29.13
2022-08-23T06:46:30.515Z,30.87
2022-08-23T06:48:59.555Z,32.29
2022-08-23T06:51:41.861Z,32.42
2022-08-23T06:54:20.489Z,33.48
2022-08-23T06:56:58.569Z,34.07
2022-08-23T06:59:29.963Z,33.04
2022-08-23T07:01:59.846Z,32.15
2022-08-23T07:04:53.786Z,30.26
2022-08-23T07:07:39.756Z,30.35
2022-08-23T07:10:12.118Z,29.51
2022-08-23T07:12:42.586Z,29.64
2022-08-23T07:15:13.039Z,29.17
2022-08-23T07:17:43.771Z,28.98
2022-08-23T07:20:11.330Z,28.91
2022-08-23T07:22:41.366Z,28.98
2022-08-23T07:25:10.394Z,29.02
2022-08-23T07:27:39.519Z,29.05
2022-08-23T07:30:08.869Z,29.16
2022-08-23T07:32:38.550Z,29.18
2022-08-23T07:35:27.922Z,28.88
2022-08-23T07:37:57.985Z,29.08
2022-08-23T07:40:30.508Z,29.35
2022-08-23T07:43:03.139Z,29.40
2022-08-23T07:45:31.398Z,29.10
2022-08-23T07:48:02.710Z,28.47
2022-08-23T07:50:35.386Z,29.36
2022-08-23T07:53:04.050Z,29.03
2022-08-23T07:55:31.573Z,29.62
2022-08-23T07:58:08.687Z,29.90
2022-08-23T08:00:51.377Z,29.51
2022-08-23T08:03:43.872Z,29.71
2022-08-23T08:06:31.694Z,29.80
2022-08-23T08:09:00.155Z,29.88
2022-08-23T08:11:34.821Z,30.01
2022-08-23T08:14:08.773Z,30.29
2022-08-23T08:16:43.463Z,30.02
2022-08-23T08:19:15.144Z,30.31
2022-08-23T08:22:01.353Z,29.89
2022-08-23T08:24:54.552Z,30.41
2022-08-23T08:27:21.989Z,30.75
2022-08-23T08:29:49.463Z,30.76
2022-08-23T08:32:16.815Z,31.13
2022-08-23T08:34:45.152Z,30.70
2022-08-23T08:37:12.758Z,30.09
2022-08-23T08:39:45.714Z,29.98
2022-08-23T08:42:31.553Z,30.24
2022-08-23T08:45:05.381Z,30.69
2022-08-23T08:47:49.646Z,31.32
2022-08-23T08:50:24.242Z,31.08
2022-08-23T08:53:08.422Z,31.25
2022-08-23T08:56:34.487Z,30.61
2022-08-23T08:59:29.089Z,31.17
2022-08-23T09:01:58.314Z,31.83
2022-08-23T09:04:32.873Z,32.23
2022-08-23T09:07:16.030Z,31.87
2022-08-23T09:10:31.620Z,31.86
2022-08-23T09:13:25.167Z,32.48
2022-08-23T09:16:08.339Z,32.64
2022-08-23T09:18:37.265Z,32.53
2022-08-23T09:21:07.705Z,31.93
2022-08-23T09:23:48.922Z,31.94
2022-08-23T09:26:39.713Z,31.95
2022-08-23T09:29:24.377Z,32.26
2022-08-23T09:32:02.062Z,32.61
2022-08-23T09:34:37.518Z,32.69
2022-08-23T09:37:18.161Z,32.97
2022-08-23T09:39:52.105Z,32.41
2022-08-23T09:42:27.202Z,33.17
2022-08-23T09:44:54.660Z,33.54
2022-08-23T09:47:44.899Z,33.34
2022-08-23T09:50:26.172Z,33.20
2022-08-23T09:53:15.429Z,32.92
2022-08-23T09:55:50.047Z,33.28
2022-08-23T09:58:32.231Z,33.13
2022-08-23T10:01:25.895Z,33.18
2022-08-23T10:04:14.416Z,33.76
2022-08-23T10:06:46.087Z,33.41
2022-08-23T10:09:33.694Z,33.80
2022-08-23T10:12:05.002Z,33.75
2022-08-23T10:14:35.037Z,33.57
2022-08-23T10:17:14.676Z,33.70
2022-08-23T10:19:49.581Z,33.01
2022-08-23T10:22:23.649Z,33.02
2022-08-23T10:25:30.371Z,33.69
2022-08-23T10:28:24.339Z,33.12
2022-08-23T10:31:23.072Z,33.12
2022-08-23T10:34:12.491Z,33.74
2022-08-23T10:37:14.425Z,33.32
2022-08-23T10:39:52.981Z,33.66
2022-08-23T10:42:55.492Z,32.65
2022-08-23T10:45:31.613Z,33.24
2022-08-23T10:48:16.087Z,32.85
2022-08-23T10:50:52.092Z,33.42
2022-08-23T10:53:32.192Z,33.48
2022-08-23T10:56:03.090Z,33.60
2022-08-23T10:58:48.126Z,33.52
2022-08-23T11:01:21.382Z,33.22
2022-08-23T11:04:02.565Z,33.66
2022-08-23T11:06:37.481Z,33.40
2022-08-23T11:09:28.238Z,33.62
2022-08-23T11:12:19.070Z,32.65
2022-08-23T11:14:55.942Z,32.87
2022-08-23T11:17:49.778Z,32.80
2022-08-23T11:20:51.093Z,32.90
2022-08-23T11:23:38.561Z,33.13
2022-08-23T11:26:27.732Z,33.36
2022-08-23T11:29:04.205Z,33.21
2022-08-23T11:31:57.207Z,33.15
2022-08-23T11:34:29.875Z,33.23
2022-08-23T11:37:20.067Z,33.96
2022-08-23T11:39:58.162Z,33.52
2022-08-23T11:43:02.968Z,33.81
2022-08-23T11:45:43.610Z,33.06
2022-08-23T11:48:37.187Z,33.62
2022-08-23T11:51:59.096Z,33.88
2022-08-23T11:54:29.445Z,34.62
2022-08-23T11:57:02.463Z,34.38
2022-08-23T11:59:43.301Z,34.56
2022-08-23T12:02:32.479Z,34.07
2022-08-23T12:05:06.498Z,34.18
2022-08-23T12:07:51.085Z,34.08
2022-08-23T12:10:43.115Z,33.88
2022-08-23T12:13:22.515Z,34.30
2022-08-23T12:16:16.736Z,34.13
2022-08-23T12:18:57.366Z,34.02
2022-08-23T12:21:34.311Z,34.16
2022-08-23T12:24:33.570Z,34.77
2022-08-23T12:27:22.185Z,34.06
2022-08-23T12:30:05.415Z,34.50
2022-08-23T12:32:58.979Z,34.31
2022-08-23T12:35:26.289Z,34.58
2022-08-23T12:37:56.623Z,33.89
2022-08-23T12:40:37.634Z,33.39
2022-08-23T12:43:26.259Z,33.81
2022-08-23T12:46:00.963Z,34.00
2022-08-23T12:48:32.848Z,34.37
2022-08-23T12:51:03.886Z,34.26
2022-08-23T12:53:34.844Z,34.05
2022-08-23T12:56:09.003Z,34.04
2022-08-23T12:58:39.393Z,34.14
2022-08-23T13:01:18.287Z,33.78
2022-08-23T13:03:51.030Z,33.89
2022-08-23T13:06:26.738Z,34.40
2022-08-23T13:09:09.282Z,34.35
2022-08-23T13:11:38.230Z,33.72
2022-08-23T13:14:29.489Z,33.82
2022-08-23T13:17:31.411Z,33.82
2022-08-23T13:20:01.747Z,33.87
2022-08-23T13:22:31.099Z,34.10
2022-08-23T13:25:27.378Z,34.05
2022-08-23T13:27:57.046Z,33.98
2022-08-23T13:30:34.075Z,34.11
2022-08-23T13:33:04.201Z,33.71
2022-08-23T13:35:40.635Z,33.71
2022-08-23T13:38:08.292Z,33.90
2022-08-23T13:41:02.961Z,32.52
2022-08-23T13:43:33.271Z,33.17
2022-08-23T13:46:15.114Z,33.24
2022-08-23T13:48:51.963Z,33.80
2022-08-23T13:51:32.723Z,33.57
2022-08-23T13:54:08.942Z,34.02
2022-08-23T13:56:49.663Z,33.93
2022-08-23T13:59:37.546Z,34.09
2022-08-23T14:02:09.157Z,33.73
2022-08-23T14:04:36.391Z,33.43
2022-08-23T14:07:05.003Z,33.22
2022-08-23T14:09:35.392Z,33.36
2022-08-23T14:12:06.376Z,33.19
2022-08-23T14:14:38.109Z,33.50
2022-08-23T14:17:06.154Z,33.46
2022-08-23T14:22:26.065Z,33.78
2022-08-23T14:24:53.401Z,33.72
2022-08-23T14:27:20.846Z,33.56
2022-08-23T14:29:48.145Z,33.02
2022-08-23T14:32:15.558Z,33.26
2022-08-23T14:34:43.158Z,33.08
2022-08-23T14:39:58.751Z,32.69
2022-08-23T14:42:26.124Z,32.66
2022-08-23T14:44:53.537Z,32.80
2022-08-23T14:47:20.881Z,32.66
2022-08-23T14:49:53.242Z,32.20
2022-08-23T14:52:21.908Z,31.72
2022-08-23T14:54:49.826Z,31.90
2022-08-23T14:57:17.412Z,32.31
2022-08-23T14:59:44.847Z,32.23
2022-08-23T15:02:16.224Z,32.28
2022-08-23T15:04:44.690Z,32.64
2022-08-23T15:07:18.208Z,32.60
2022-08-23T15:09:48.614Z,32.53
2022-08-23T15:15:13.624Z,32.44
2022-08-23T15:17:52.130Z,32.08
2022-08-23T15:20:29.361Z,32.29
2022-08-23T15:22:56.863Z,32.18
2022-08-23T15:25:30.159Z,32.23
2022-08-23T15:27:57.713Z,32.23
2022-08-23T15:30:25.192Z,32.27
2022-08-23T15:32:56.519Z,31.97
2022-08-23T15:35:26.342Z,31.87
2022-08-23T15:37:56.443Z,31.86
2022-08-23T15:40:25.656Z,31.81
2022-08-23T15:42:53.628Z,31.53
2022-08-23T15:45:21.102Z,31.69
2022-08-23T15:47:51.529Z,31.62
2022-08-23T15:50:23.699Z,31.55
2022-08-23T15:52:51.384Z,31.18
2022-08-23T15:55:19.666Z,31.35
2022-08-23T15:57:50.406Z,31.30
2022-08-23T16:00:19.967Z,31.40
2022-08-23T16:03:19.044Z,31.41
2022-08-23T16:05:37.641Z,31.31
2022-08-23T16:08:06.364Z,31.36
2022-08-23T16:10:34.171Z,31.34
2022-08-23T16:13:01.598Z,31.31
2022-08-23T16:15:29.155Z,31.24
2022-08-23T16:17:56.423Z,31.11
2022-08-23T16:20:23.820Z,31.01
2022-08-23T16:22:51.196Z,31.11
2022-08-23T16:25:18.570Z,30.98
2022-08-23T16:27:45.938Z,31.06
2022-08-23T16:30:14.140Z,31.06
2022-08-23T16:32:41.905Z,30.90
2022-08-23T16:35:10.071Z,31.01
2022-08-23T16:37:37.725Z,30.92
2022-08-23T16:40:07.823Z,30.93
2022-08-23T16:42:35.323Z,30.89
2022-08-23T16:45:02.811Z,30.83
2022-08-23T16:47:33.643Z,30.69
2022-08-23T16:50:00.986Z,30.69
2022-08-23T16:52:34.304Z,30.62
2022-08-23T16:55:07.441Z,30.50
2022-08-23T16:57:34.812Z,30.54
2022-08-23T17:00:02.339Z,30.47
2022-08-23T17:02:35.086Z,30.41
2022-08-23T17:05:04.674Z,30.37
2022-08-23T17:07:32.424Z,30.27
2022-08-23T17:10:00.162Z,30.22
2022-08-23T17:12:28.535Z,30.18
2022-08-23T17:14:57.271Z,30.04
2022-08-23T17:17:25.165Z,29.89
2022-08-23T17:19:52.460Z,29.87
2022-08-23T17:22:20.354Z,29.88
2022-08-23T17:24:47.751Z,29.77
2022-08-23T17:27:20.577Z,29.80
2022-08-23T17:29:48.008Z,29.62
2022-08-23T17:32:15.391Z,29.64
2022-08-23T17:34:42.696Z,29.54
2022-08-23T17:37:19.280Z,29.46
2022-08-23T17:39:47.668Z,29.31
2022-08-23T17:42:15.183Z,29.21
2022-08-23T17:44:42.551Z,29.12
2022-08-23T17:47:15.564Z,29.04
2022-08-23T17:49:45.306Z,29.05
2022-08-23T17:52:13.107Z,29.01
2022-08-23T17:54:41.196Z,28.94
2022-08-23T17:57:11.017Z,28.83
2022-08-23T17:59:38.780Z,28.76
2022-08-23T18:02:06.869Z,28.80
2022-08-23T18:04:34.451Z,28.81
2022-08-23T18:07:02.478Z,28.67
2022-08-23T18:09:30.298Z,28.58
2022-08-23T18:11:57.803Z,28.48
2022-08-23T18:14:27.695Z,28.44
2022-08-23T18:16:56.087Z,28.38
2022-08-23T18:19:24.348Z,28.33
2022-08-23T18:21:51.711Z,28.12
2022-08-23T18:24:19.969Z,28.04
2022-08-23T18:27:06.806Z,28.12
2022-08-23T18:29:36.527Z,28.11
2022-08-23T18:32:08.323Z,28.14
2022-08-23T18:34:38.003Z,28.06
2022-08-23T18:37:07.417Z,28.03
2022-08-23T18:39:34.816Z,27.94
2022-08-23T18:42:04.729Z,28.01
2022-08-23T18:44:32.421Z,27.91
2022-08-23T18:47:02.071Z,27.86
2022-08-23T18:49:29.639Z,27.84
2022-08-23T18:51:56.926Z,27.81
2022-08-23T18:54:24.325Z,27.71
2022-08-23T18:56:51.705Z,27.66
2022-08-23T18:59:19.262Z,27.63
2022-08-23T19:01:46.925Z,27.70
2022-08-23T19:04:14.994Z,27.66
2022-08-23T19:06:42.691Z,27.60
2022-08-23T19:09:12.923Z,27.51
2022-08-23T19:11:42.022Z,27.50
2022-08-23T19:14:11.345Z,27.44
2022-08-23T19:16:43.474Z,27.48
2022-08-23T19:19:13.228Z,27.74
2022-08-23T19:21:40.640Z,27.93
2022-08-23T19:24:08.049Z,27.97
2022-08-23T19:26:36.245Z,27.66
2022-08-23T19:29:09.108Z,27.58
2022-08-23T19:31:42.837Z,27.47
2022-08-23T19:34:11.363Z,27.45
2022-08-23T19:36:49.356Z,27.34
2022-08-23T19:39:24.728Z,27.16
2022-08-23T19:41:52.077Z,27.29
2022-08-23T19:44:19.436Z,27.24
2022-08-23T19:46:46.811Z,27.19
2022-08-23T19:49:15.715Z,27.31
2022-08-23T19:51:44.009Z,27.12
2022-08-23T19:54:12.863Z,27.08
2022-08-23T19:56:45.912Z,27.00
2022-08-23T19:59:19.535Z,26.98
2022-08-23T20:01:48.248Z,26.98
2022-08-23T20:04:16.072Z,26.98
2022-08-23T20:06:43.596Z,26.78
2022-08-23T20:09:11.508Z,26.90
2022-08-23T20:11:39.205Z,26.85
2022-08-23T20:14:07.693Z,26.95
2022-08-23T20:16:35.341Z,26.77
2022-08-23T20:19:03.523Z,26.87
2022-08-23T20:21:30.794Z,26.83
2022-08-23T20:24:01.291Z,26.95
2022-08-23T20:26:30.336Z,26.72
2022-08-23T20:28:59.712Z,26.69
2022-08-23T20:31:32.444Z,26.71
2022-08-23T20:34:00.147Z,26.71
2022-08-23T20:36:28.416Z,26.61
2022-08-23T20:38:58.412Z,26.55
2022-08-23T20:41:30.759Z,26.65
2022-08-23T20:43:59.155Z,26.60
2022-08-23T20:46:27.297Z,26.58
2022-08-23T20:48:57.653Z,26.47
2022-08-23T20:51:26.947Z,26.26
2022-08-23T20:53:56.196Z,26.38
2022-08-23T20:56:25.183Z,26.44
2022-08-23T20:58:52.622Z,26.53
2022-08-23T21:01:21.051Z,26.32
2022-08-23T21:03:48.767Z,26.37
2022-08-23T21:06:28.036Z,26.20
2022-08-23T21:08:58.784Z,26.18
2022-08-23T21:11:28.288Z,26.13
2022-08-23T21:13:57.192Z,26.20
2022-08-23T21:16:25.172Z,26.07
2022-08-23T21:18:55.511Z,26.02
2022-08-23T21:21:24.479Z,26.01
2022-08-23T21:23:52.250Z,25.89
2022-08-23T21:26:20.247Z,25.93
2022-08-23T21:28:48.269Z,25.85
2022-08-23T21:31:19.067Z,25.69
2022-08-23T21:33:47.015Z,25.94
2022-08-23T21:36:16.397Z,25.93
2022-08-23T21:38:45.509Z,25.82
2022-08-23T21:41:27.309Z,25.71
2022-08-23T21:43:54.718Z,25.62
2022-08-23T21:46:22.373Z,25.64
2022-08-23T21:48:49.962Z,25.63
2022-08-23T21:51:17.330Z,25.66
2022-08-23T21:53:44.704Z,25.65
2022-08-23T21:56:12.007Z,25.57
2022-08-23T21:58:39.755Z,25.55
2022-08-23T22:01:08.907Z,25.47
2022-08-23T22:03:36.547Z,25.60
2022-08-23T22:06:04.644Z,25.35
2022-08-23T22:08:32.154Z,25.25
2022-08-23T22:11:07.247Z,25.21
2022-08-23T22:13:35.596Z,25.36
2022-08-23T22:16:04.088Z,25.31
2022-08-23T22:18:31.797Z,25.19
2022-08-23T22:21:00.333Z,25.16
2022-08-23T22:23:29.392Z,25.20
2022-08-23T22:25:57.899Z,25.00
2022-08-23T22:28:25.526Z,24.99
2022-08-23T22:31:00.340Z,24.92
2022-08-23T22:33:27.880Z,24.92
2022-08-23T22:36:01.117Z,25.03
2022-08-23T22:38:28.490Z,25.09
2022-08-23T22:40:55.865Z,24.91
2022-08-23T22:43:23.422Z,24.85
2022-08-23T22:45:57.047Z,25.01
2022-08-23T22:48:26.684Z,24.92
2022-08-23T22:51:08.761Z,24.99
2022-08-23T22:53:37.374Z,24.84
2022-08-23T22:56:05.170Z,24.93
2022-08-23T22:58:33.642Z,24.83
2022-08-23T23:01:03.778Z,24.75
2022-08-23T23:03:41.595Z,24.71
2022-08-23T23:06:09.539Z,24.57
2022-08-23T23:08:37.783Z,24.66
2022-08-23T23:11:08.500Z,24.53
2022-08-23T23:13:36.347Z,24.66
2022-08-23T23:16:11.159Z,24.67
2022-08-23T23:18:40.299Z,24.52
2022-08-23T23:21:09.003Z,24.64
2022-08-23T23:23:37.451Z,24.63
2022-08-23T23:26:08.001Z,24.68
2022-08-23T23:28:35.348Z,24.62
2022-08-23T23:31:04.450Z,24.55
2022-08-23T23:33:33.265Z,24.48
2022-08-23T23:36:01.308Z,24.48
2022-08-23T23:38:28.790Z,24.54
2022-08-23T23:40:56.092Z,24.55
2022-08-23T23:43:23.419Z,24.44
2022-08-23T23:45:50.775Z,24.27
2022-08-23T23:48:18.126Z,24.27
2022-08-23T23:50:46.666Z,24.29
2022-08-23T23:53:15.283Z,24.18
2022-08-23T23:55:43.774Z,24.10
2022-08-23T23:58:11.247Z,24.07
